METAR Data
IDs: Format: Raw Decoded Include TAF

Data at: 1519 UTC 21 Sep 2018

KPAH 211453Z 23007KT 8SM SCT095 BKN110 29/22 A3003 RMK AO2 SLP164 T02890217 51006
KPAH 211353Z VRB05KT 9SM CLR 28/21 A3002 RMK AO2 SLP162 T02780211
KPAH 211253Z 21006KT 9SM CLR 26/21 A3002 RMK AO2 SLP161 T02560206
KPAH 211153Z 18005KT 9SM CLR 24/20 A3001 RMK AO2 SLP158 T02440200 10261 20244 51007 $
KPAH 211053Z 20005KT 10SM CLR 25/20 A3001 RMK AO2 SLP155 T02500200 $
KPAH 210953Z AUTO 19003KT 10SM BKN120 25/20 A3000 RMK AO2 SLP153 T02500200 $
KPAH 210853Z AUTO 21004KT 10SM FEW095 26/19 A2999 RMK AO2 SLP149 T02560194 53002 $
KPAH 210753Z AUTO 19004KT 10SM FEW090 26/19 A2999 RMK AO2 SLP148 T02560194 $
KPAH 210653Z AUTO 20004KT 10SM CLR 26/19 A2998 RMK AO2 SLP147 T02560189 $
KPAH 210553Z AUTO 19004KT 10SM CLR 26/18 A2998 RMK AO2 SLP147 T02610183 10283 20250 403610206 53008 $
KPAH 210453Z AUTO 20003KT 10SM SCT100 27/18 A2997 RMK AO2 SLP144 T02670183 $
KPAH 210353Z 17005KT 10SM CLR 27/18 A2996 RMK AO2 SLP140 T02670183 $
KPAH 210253Z 17005KT 10SM CLR 27/18 A2996 RMK AO2 SLP140 T02670183 53005
KPAH 210153Z 17004KT 10SM CLR 26/19 A2995 RMK AO2 SLP136 T02610194
KPAH 210053Z 17004KT 10SM CLR 26/21 A2994 RMK AO2 SLP133 T02560206
KPAH 202353Z 00000KT 10SM CLR 28/21 A2994 RMK AO2 SLP136 T02830211 10361 20283 56005
KPAH 202253Z 00000KT 10SM CLR 32/20 A2994 RMK AO2 SLP135 T03220200
KPAH 202153Z 21004KT 10SM FEW075 34/19 A2995 RMK AO2 SLP138 T03390189
KPAH 202053Z 19006KT 10SM CLR 34/19 A2996 RMK AO2 SLP139 T03440189 56018
KPAH 201953Z 22008KT 9SM SCT070 BKN090 36/19 A2997 RMK AO2 SLP143 T03610194
KPAH 201853Z 22006KT 8SM CLR 34/19 A2999 RMK AO2 SLP149 T03440189
KPAH 201753Z VRB04KT 8SM CLR 34/20 A3001 RMK AO2 SLP157 T03440200 10350 20206 58012
KPAH 201653Z 21007KT 8SM CLR 33/21 A3003 RMK AO2 SLP164 T03330206
KPAH 201553Z 21005KT 7SM CLR 32/21 A3005 RMK AO2 SLP168 T03220211
KPAH 201453Z 22004KT 8SM CLR 30/21 A3005 RMK AO2 SLP171 T03000211 53009
KPAH 201353Z 17004KT 8SM CLR 28/21 A3004 RMK AO2 SLP167 T02780211
KPAH 201253Z 00000KT 6SM HZ CLR 24/21 A3003 RMK AO2 SLP166 T02390211
KPAH 201153Z 00000KT 3SM BR CLR 21/19 A3002 RMK AO2 SLP163 T02060194 10244 20206 53013
KPAH 201053Z 00000KT 4SM BR CLR 21/19 A3000 RMK AO2 SLP155 T02060194
KPAH 200953Z AUTO 12003KT 5SM BR CLR 22/21 A3000 RMK AO2 SLP153 T02170206
KPAH 200853Z AUTO 00000KT 8SM CLR 23/21 A2998 RMK AO2 SLP148 T02330206 53004
KPAH 200753Z AUTO 18003KT 8SM CLR 24/21 A2998 RMK AO2 SLP146 T02390206
KPAH 200653Z AUTO 15003KT 8SM CLR 24/21 A2997 RMK AO2 SLP145 T02390211
KPAH 200553Z AUTO 00000KT 7SM CLR 23/22 A2997 RMK AO2 SLP146 T02330217 10278 20228 403390200 58001
KPAH 200453Z AUTO 17005KT 8SM CLR 26/22 A2998 RMK AO2 SLP145 T02560222
KPAH 200353Z 16005KT 8SM CLR 25/22 A2998 RMK AO2 SLP146 T02500222